POGODA: Poland

Lotnisko: Katowice-Pyrzowice

METAR KOD: EPKT


METAR: EPKT 240600Z 02010KT 3000 -RA BR FEW002 BKN003 16/16 Q1009


BLOK
Pogoda METAR
240600Z
Dzien: 24, Godzina: 06:00 UTC.
02010KT
Wiatr z kierunku 020, o predkosci 19 km/h
3000
Widzialnosc pozioma 3000 m.
-RA
slab. deszcz
BR
zamglenia
FEW002
1/8 - 2/8 pokrycia nieba, chmurami o podstawie: 60 metrow
BKN003
5/8 - 7/8 pokrycia nieba, chmurami o podstawie: 90 metrow
16/16
Temperatura: powietrze 16°C, punkt rosy 16°C . Wilgotnosc wzgledna 100 %
Q1009
Cisnienie: 1009 hPa

Pogoda na innym lotnisku

Pogoda Gdansk-Rebiechowo WEATHER Poland  
Pogoda Katowice WEATHER Poland  
Pogoda Krakow WEATHER Poland  
Pogoda Poznan WEATHER Poland  
Pogoda Rzeszow-Jasionka WEATHER Poland  
Pogoda Szczecin WEATHER Poland  
Pogoda Warszawa-Okecie WEATHER Poland  
Pogoda Wroclaw Ii WEATHER Poland  

Pogoda w inny kraju

Strona startowa

(C) by GREGOR 2007
Ogłoszenia Towarzyskie